Terminal Aerodrome Forecast
Issued by NWS

Home | Current Version | Previous Version | Graphics & Text | Print | Product List | Glossary On
Versions: 1 2 3 4 5 6 7 8 9 10 11 12 13 14 15 16 17 18
000
FTUS43 KICT 212320
TAFCNU
TAF
KCNU 212320Z 2200/2224 19015G23KT P6SM VCTS BKN050CB
      TEMPO 2202/2205 1SM +TSRA OVC015CB
     FM220500 35014G20KT P6SM -SHRA VCTS OVC030CB
     FM220800 34010KT P6SM SCT050 BKN150
     FM221600 31010KT P6SM SKC=

USA.gov is the U.S. government's official web portal to all federal, state and local government web resources and services.